createdAt,value
2022-12-25T00:01:16.771Z,60.00
2022-12-25T00:03:43.212Z,58.42
2022-12-25T00:06:09.723Z,58.40
2022-12-25T00:08:36.722Z,61.47
2022-12-25T00:11:04.669Z,52.03
2022-12-25T00:13:31.344Z,63.13
2022-12-25T00:15:57.967Z,60.80
2022-12-25T00:18:24.735Z,61.80
2022-12-25T00:20:58.397Z,55.67
2022-12-25T00:23:24.848Z,63.92
2022-12-25T00:25:51.640Z,51.38
2022-12-25T00:28:18.197Z,54.63
2022-12-25T00:30:44.622Z,58.60
2022-12-25T00:33:11.076Z,55.30
2022-12-25T00:35:37.543Z,61.33
2022-12-25T00:38:03.941Z,43.80
2022-12-25T00:40:32.591Z,47.28
2022-12-25T00:42:58.949Z,50.75
2022-12-25T00:45:25.385Z,59.35
2022-12-25T00:47:51.737Z,62.80
2022-12-25T00:50:18.157Z,47.63
2022-12-25T00:52:44.505Z,46.30
2022-12-25T00:55:10.933Z,51.17
2022-12-25T00:57:37.394Z,46.55
2022-12-25T01:00:04.190Z,55.47
2022-12-25T01:02:30.671Z,47.03
2022-12-25T01:04:57.296Z,50.75
2022-12-25T01:07:24.771Z,49.65
2022-12-25T01:10:09.644Z,50.38
2022-12-25T01:12:38.588Z,51.78
2022-12-25T01:15:07.282Z,48.83
2022-12-25T01:17:34.055Z,47.55
2022-12-25T01:20:00.471Z,50.58
2022-12-25T01:22:26.870Z,56.28
2022-12-25T01:24:53.260Z,53.40
2022-12-25T01:27:19.604Z,51.92
2022-12-25T01:29:46.536Z,41.25
2022-12-25T01:32:12.985Z,41.78
2022-12-25T01:34:39.374Z,46.15
2022-12-25T01:37:08.879Z,51.15
2022-12-25T01:39:35.172Z,46.97
2022-12-25T01:42:01.536Z,57.95
2022-12-25T01:44:37.073Z,49.72
2022-12-25T01:47:04.034Z,47.05
2022-12-25T01:49:31.370Z,46.17
2022-12-25T01:52:02.597Z,37.78
2022-12-25T01:54:30.716Z,52.75
2022-12-25T01:56:58.588Z,55.20
2022-12-25T01:59:25.948Z,50.05
2022-12-25T02:01:52.557Z,46.75
2022-12-25T02:04:21.903Z,40.92
2022-12-25T02:06:49.832Z,57.15
2022-12-25T02:09:16.310Z,38.45
2022-12-25T02:11:57.758Z,41.50
2022-12-25T02:14:25.588Z,40.55
2022-12-25T02:16:57.982Z,41.83
2022-12-25T02:19:39.909Z,42.95
2022-12-25T02:22:06.210Z,31.08
2022-12-25T02:24:44.914Z,37.25
2022-12-25T02:27:16.117Z,52.28
2022-12-25T02:29:59.621Z,39.97
2022-12-25T02:32:33.054Z,59.67
2022-12-25T02:35:22.450Z,39.63
2022-12-25T02:37:55.680Z,41.95
2022-12-25T02:40:30.524Z,38.88
2022-12-25T02:43:20.854Z,41.55
2022-12-25T02:46:09.207Z,42.08
2022-12-25T02:48:57.011Z,43.80
2022-12-25T02:51:44.318Z,45.15
2022-12-25T02:54:31.439Z,44.00
2022-12-25T02:57:17.668Z,49.72
2022-12-25T03:00:05.788Z,35.67
2022-12-25T03:02:51.628Z,47.63
2022-12-25T03:05:39.327Z,42.95
2022-12-25T03:08:07.685Z,47.30
2022-12-25T03:10:55.657Z,41.97
2022-12-25T03:13:24.385Z,39.00
2022-12-25T03:16:09.665Z,41.58
2022-12-25T03:18:36.131Z,39.83
2022-12-25T03:21:21.201Z,56.15
2022-12-25T03:24:09.507Z,48.53
2022-12-25T03:26:54.278Z,44.17
2022-12-25T03:29:49.861Z,48.67
2022-12-25T03:32:16.187Z,46.30
2022-12-25T03:35:01.344Z,42.95
2022-12-25T03:37:44.154Z,36.08
2022-12-25T03:40:40.247Z,48.08
2022-12-25T03:43:37.638Z,43.58
2022-12-25T03:46:24.302Z,41.08
2022-12-25T03:49:11.989Z,41.10
2022-12-25T03:51:57.790Z,42.22
2022-12-25T03:54:45.650Z,53.90
2022-12-25T03:57:31.974Z,43.13
2022-12-25T04:00:16.919Z,50.25
2022-12-25T04:03:01.810Z,46.78
2022-12-25T04:05:46.815Z,39.25
2022-12-25T04:08:31.907Z,51.70
2022-12-25T04:11:33.482Z,47.92
2022-12-25T04:14:18.506Z,44.22
2022-12-25T04:17:03.365Z,46.38
2022-12-25T04:19:48.218Z,30.23
2022-12-25T04:22:33.113Z,48.63
2022-12-25T04:25:17.898Z,37.45
2022-12-25T04:28:02.884Z,47.78
2022-12-25T04:30:47.984Z,36.58
2022-12-25T04:33:49.863Z,37.58
2022-12-25T04:36:16.231Z,46.33
2022-12-25T04:38:42.803Z,40.25
2022-12-25T04:41:11.071Z,51.90
2022-12-25T04:43:37.591Z,43.25
2022-12-25T04:46:04.163Z,40.63
2022-12-25T04:48:32.384Z,40.60
2022-12-25T04:50:58.944Z,33.45
2022-12-25T04:53:25.273Z,36.40
2022-12-25T04:56:00.356Z,39.05
2022-12-25T04:58:26.702Z,38.47
2022-12-25T05:00:53.133Z,42.53
2022-12-25T05:03:19.488Z,27.05
2022-12-25T05:05:45.912Z,37.75
2022-12-25T05:08:12.331Z,37.67
2022-12-25T05:10:40.130Z,30.77
2022-12-25T05:13:06.557Z,31.80
2022-12-25T05:15:32.917Z,33.83
2022-12-25T05:17:59.442Z,33.10
2022-12-25T05:20:25.887Z,34.83
2022-12-25T05:22:52.246Z,41.80
2022-12-25T05:25:18.720Z,47.58
2022-12-25T05:27:48.824Z,30.73
2022-12-25T05:30:20.094Z,35.80
2022-12-25T05:32:47.429Z,35.42
2022-12-25T05:35:14.311Z,34.85
2022-12-25T05:37:40.683Z,28.10
2022-12-25T05:40:07.447Z,33.42
2022-12-25T05:42:34.180Z,31.15
2022-12-25T05:45:00.472Z,38.55
2022-12-25T05:47:26.876Z,34.97
2022-12-25T05:49:53.289Z,41.22
2022-12-25T05:52:19.645Z,30.20
2022-12-25T05:54:45.996Z,25.67
2022-12-25T05:57:12.295Z,29.00
2022-12-25T05:59:38.626Z,37.50
2022-12-25T06:02:05.108Z,30.98
2022-12-25T06:04:34.415Z,33.10
2022-12-25T06:07:00.752Z,32.38
2022-12-25T06:09:27.052Z,30.10
2022-12-25T06:11:53.502Z,27.83
2022-12-25T06:14:19.993Z,29.30
2022-12-25T06:16:46.478Z,28.30
2022-12-25T06:19:12.843Z,26.40
2022-12-25T06:21:39.205Z,24.58
2022-12-25T06:24:05.823Z,29.48
2022-12-25T06:26:32.287Z,27.88
2022-12-25T06:28:58.592Z,28.00
2022-12-25T06:31:25.001Z,24.83
2022-12-25T06:33:51.516Z,28.70
2022-12-25T06:36:22.597Z,26.40
2022-12-25T06:38:49.180Z,26.08
2022-12-25T06:41:17.287Z,27.02
2022-12-25T06:43:43.932Z,36.65
2022-12-25T06:46:12.206Z,27.23
2022-12-25T06:48:39.324Z,30.30
2022-12-25T06:51:06.295Z,33.85
2022-12-25T06:53:39.647Z,24.63
2022-12-25T06:56:07.183Z,28.98
2022-12-25T06:58:33.509Z,28.48
2022-12-25T07:01:00.140Z,33.92
2022-12-25T07:03:28.686Z,22.13
2022-12-25T07:05:55.061Z,24.48
2022-12-25T07:08:21.414Z,20.73
2022-12-25T07:10:47.772Z,29.75
2022-12-25T07:13:14.085Z,25.73
2022-12-25T07:15:40.503Z,25.80
2022-12-25T07:18:08.231Z,27.88
2022-12-25T07:20:37.646Z,22.17
2022-12-25T07:23:04.004Z,24.77
2022-12-25T07:25:36.825Z,19.90
2022-12-25T07:28:03.659Z,20.00
2022-12-25T07:30:30.003Z,22.23
2022-12-25T07:32:56.753Z,18.83
2022-12-25T07:35:23.057Z,19.48
2022-12-25T07:37:50.667Z,26.55
2022-12-25T07:40:19.614Z,20.92
2022-12-25T07:42:45.921Z,28.80
2022-12-25T07:45:12.364Z,24.52
2022-12-25T07:47:38.716Z,22.35
2022-12-25T07:50:05.553Z,30.15
2022-12-25T07:52:33.458Z,21.05
2022-12-25T07:55:03.077Z,19.60
2022-12-25T07:57:29.840Z,19.70
2022-12-25T07:59:56.291Z,26.40
2022-12-25T08:02:28.666Z,24.58
2022-12-25T08:04:55.668Z,18.27
2022-12-25T08:07:22.114Z,23.20
2022-12-25T08:09:48.503Z,18.73
2022-12-25T08:12:15.016Z,17.42
2022-12-25T08:14:41.393Z,21.88
2022-12-25T08:17:08.037Z,22.00
2022-12-25T08:19:36.708Z,19.33
2022-12-25T08:22:03.039Z,23.35
2022-12-25T08:24:29.342Z,20.33
2022-12-25T08:26:55.608Z,18.98
2022-12-25T08:29:22.155Z,20.10
2022-12-25T08:31:48.414Z,18.50
2022-12-25T08:34:14.979Z,20.48
2022-12-25T08:36:41.688Z,21.15
2022-12-25T08:39:08.142Z,18.55
2022-12-25T08:41:36.530Z,20.25
2022-12-25T08:44:03.715Z,16.73
2022-12-25T08:46:30.068Z,17.38
2022-12-25T08:48:56.885Z,18.25
2022-12-25T08:51:24.647Z,20.48
2022-12-25T08:53:51.646Z,21.55
2022-12-25T08:56:18.475Z,16.45
2022-12-25T08:58:45.180Z,18.70
2022-12-25T09:01:12.013Z,17.48
2022-12-25T09:03:38.421Z,23.83
2022-12-25T09:06:09.115Z,19.42
2022-12-25T09:08:36.167Z,20.52
2022-12-25T09:11:06.423Z,17.13
2022-12-25T09:13:33.008Z,20.38
2022-12-25T09:15:59.631Z,15.00
2022-12-25T09:18:26.325Z,17.17
2022-12-25T09:21:01.919Z,15.73
2022-12-25T09:23:28.467Z,17.15
2022-12-25T09:25:54.893Z,16.65
2022-12-25T09:28:21.421Z,16.33
2022-12-25T09:30:50.645Z,17.70
2022-12-25T09:33:17.206Z,15.63
2022-12-25T09:35:56.588Z,18.63
2022-12-25T09:38:23.307Z,18.95
2022-12-25T09:40:57.760Z,21.80
2022-12-25T09:43:25.976Z,21.42
2022-12-25T09:45:52.501Z,21.85
2022-12-25T09:48:18.952Z,20.80
2022-12-25T09:51:09.627Z,17.65
2022-12-25T09:53:40.367Z,24.52
2022-12-25T09:56:16.695Z,19.25
2022-12-25T09:58:43.266Z,24.23
2022-12-25T10:01:12.600Z,20.83
2022-12-25T10:03:49.704Z,21.77
2022-12-25T10:06:15.967Z,19.17
2022-12-25T10:09:00.903Z,25.65
2022-12-25T10:11:46.176Z,21.75
2022-12-25T10:14:20.715Z,18.65
2022-12-25T10:16:49.790Z,39.85
2022-12-25T10:19:16.141Z,25.80
2022-12-25T10:21:42.523Z,24.23
2022-12-25T10:24:14.966Z,25.02
2022-12-25T10:26:41.926Z,23.80
2022-12-25T10:29:15.895Z,24.58
2022-12-25T10:31:45.347Z,18.90
2022-12-25T10:34:12.807Z,30.25
2022-12-25T10:36:39.525Z,23.65
2022-12-25T10:39:05.987Z,27.35
2022-12-25T10:41:51.199Z,28.60
2022-12-25T10:44:21.884Z,39.22
2022-12-25T10:46:52.091Z,26.40
2022-12-25T10:49:20.872Z,31.33
2022-12-25T10:51:47.304Z,32.53
2022-12-25T10:54:31.058Z,32.67
2022-12-25T10:57:01.921Z,33.75
2022-12-25T11:01:57.909Z,27.27
2022-12-25T11:04:28.732Z,37.97
2022-12-25T11:09:21.390Z,53.38
2022-12-25T11:11:48.223Z,58.13
2022-12-25T11:14:20.653Z,60.45
2022-12-25T11:16:47.253Z,36.63
2022-12-25T11:19:28.199Z,31.75
2022-12-25T11:24:37.627Z,25.77
2022-12-25T11:27:06.040Z,25.45
2022-12-25T11:29:32.404Z,22.58
2022-12-25T11:31:59.959Z,27.30
2022-12-25T11:34:29.097Z,21.05
2022-12-25T11:36:55.646Z,30.13
2022-12-25T11:39:22.061Z,24.35
2022-12-25T11:41:50.443Z,23.77
2022-12-25T11:44:36.990Z,20.08
2022-12-25T11:47:12.702Z,21.58
2022-12-25T11:49:49.667Z,37.58
2022-12-25T11:52:17.331Z,20.83
2022-12-25T11:54:53.308Z,17.48
2022-12-25T11:57:20.358Z,20.88
2022-12-25T11:59:53.177Z,22.63
2022-12-25T12:02:22.684Z,26.33
2022-12-25T12:04:50.914Z,33.50
2022-12-25T12:07:21.598Z,25.13
2022-12-25T12:09:53.732Z,21.27
2022-12-25T12:12:29.554Z,25.75
2022-12-25T12:15:00.582Z,16.30
2022-12-25T12:17:26.995Z,22.10
2022-12-25T12:19:53.256Z,19.55
2022-12-25T12:22:23.931Z,22.42
2022-12-25T12:24:54.314Z,23.00
2022-12-25T12:27:23.368Z,23.13
2022-12-25T12:29:50.883Z,25.63
2022-12-25T12:32:25.179Z,20.63
2022-12-25T12:34:51.539Z,19.33
2022-12-25T12:37:24.778Z,23.10
2022-12-25T12:39:52.788Z,36.72
2022-12-25T12:42:21.989Z,40.42
2022-12-25T12:44:49.668Z,30.15
2022-12-25T12:47:32.329Z,33.70
2022-12-25T12:50:02.651Z,161.98
2022-12-25T12:52:33.673Z,202.02
2022-12-25T12:55:06.644Z,81.30
2022-12-25T12:57:41.650Z,64.05
2022-12-25T13:00:16.778Z,54.40
2022-12-25T13:02:45.244Z,32.38
2022-12-25T13:05:16.016Z,24.27
2022-12-25T13:10:34.096Z,27.73
2022-12-25T13:13:08.251Z,26.52
2022-12-25T13:15:46.504Z,26.20
2022-12-25T13:18:34.338Z,27.20
2022-12-25T13:21:08.095Z,26.33
2022-12-25T13:23:44.590Z,29.92
2022-12-25T13:26:20.786Z,29.45
2022-12-25T13:28:47.782Z,28.05
2022-12-25T13:31:30.402Z,30.98
2022-12-25T13:34:12.898Z,27.23
2022-12-25T13:36:40.429Z,29.55
2022-12-25T13:39:08.030Z,26.13
2022-12-25T13:42:02.652Z,22.02
2022-12-25T13:44:32.996Z,24.00
2022-12-25T13:47:18.493Z,21.80
2022-12-25T13:49:45.654Z,25.10
2022-12-25T13:52:13.560Z,24.13
2022-12-25T13:54:50.853Z,24.63
2022-12-25T13:57:17.837Z,26.65
2022-12-25T13:59:44.348Z,29.42
2022-12-25T14:02:20.935Z,25.27
2022-12-25T14:04:47.459Z,24.40
2022-12-25T14:07:18.418Z,31.15
2022-12-25T14:09:44.843Z,24.63
2022-12-25T14:12:17.334Z,25.45
2022-12-25T14:14:45.941Z,22.08
2022-12-25T14:17:12.399Z,27.30
2022-12-25T14:19:38.742Z,28.48
2022-12-25T14:22:29.438Z,25.58
2022-12-25T14:27:24.797Z,27.35
2022-12-25T14:29:52.148Z,26.77
2022-12-25T14:32:22.829Z,26.48
2022-12-25T14:34:51.512Z,27.45
2022-12-25T14:37:21.982Z,27.63
2022-12-25T14:39:59.037Z,31.50
2022-12-25T14:42:27.722Z,27.83
2022-12-25T14:45:06.722Z,28.58
2022-12-25T14:47:39.079Z,33.05
2022-12-25T14:50:15.888Z,28.75
2022-12-25T14:53:08.691Z,23.08
2022-12-25T14:55:35.405Z,23.60
2022-12-25T14:58:06.185Z,29.70
2022-12-25T15:00:35.463Z,24.77
2022-12-25T15:03:03.507Z,36.80
2022-12-25T15:05:32.050Z,29.63
2022-12-25T15:08:13.867Z,32.22
2022-12-25T15:13:27.820Z,26.30
2022-12-25T15:15:59.425Z,31.25
2022-12-25T15:18:27.653Z,24.92
2022-12-25T15:21:06.050Z,25.08
2022-12-25T15:23:32.527Z,27.08
2022-12-25T15:25:58.985Z,29.92
2022-12-25T15:28:25.420Z,23.80
2022-12-25T15:30:51.969Z,24.75
2022-12-25T15:33:18.963Z,21.95
2022-12-25T15:35:45.637Z,25.02
2022-12-25T15:38:12.652Z,27.48
2022-12-25T15:40:39.609Z,25.20
2022-12-25T15:43:11.472Z,23.40
2022-12-25T15:45:48.863Z,21.48
2022-12-25T15:48:15.416Z,22.73
2022-12-25T15:50:42.319Z,23.50
2022-12-25T15:53:09.987Z,22.85
2022-12-25T15:55:36.945Z,27.70
2022-12-25T15:58:03.318Z,25.45
2022-12-25T16:00:29.807Z,28.67
2022-12-25T16:02:57.003Z,23.83
2022-12-25T16:05:23.591Z,23.95
2022-12-25T16:07:49.912Z,26.95
2022-12-25T16:10:18.288Z,29.50
2022-12-25T16:12:44.988Z,20.85
2022-12-25T16:15:12.330Z,26.13
2022-12-25T16:17:38.854Z,28.50
2022-12-25T16:20:05.908Z,29.88
2022-12-25T16:22:39.488Z,31.63
2022-12-25T16:25:13.177Z,39.72
2022-12-25T16:27:39.548Z,32.55
2022-12-25T16:30:06.125Z,26.40
2022-12-25T16:32:32.448Z,23.08
2022-12-25T16:34:58.738Z,21.90
2022-12-25T16:37:25.091Z,30.30
2022-12-25T16:39:51.422Z,28.60
2022-12-25T16:42:17.761Z,22.85
2022-12-25T16:44:44.649Z,24.42
2022-12-25T16:47:11.110Z,28.20
2022-12-25T16:49:37.475Z,28.20
2022-12-25T16:52:03.941Z,31.95
2022-12-25T16:54:31.617Z,27.60
2022-12-25T16:56:57.887Z,33.58
2022-12-25T16:59:24.173Z,38.03
2022-12-25T17:01:50.588Z,38.20
2022-12-25T17:04:16.984Z,32.78
2022-12-25T17:06:43.361Z,43.33
2022-12-25T17:09:14.009Z,37.05
2022-12-25T17:11:40.982Z,51.70
2022-12-25T17:14:07.401Z,36.95
2022-12-25T17:16:35.192Z,35.15
2022-12-25T17:19:10.416Z,48.15
2022-12-25T17:21:41.416Z,28.77
2022-12-25T17:24:07.888Z,44.42
2022-12-25T17:26:34.268Z,52.92
2022-12-25T17:29:03.833Z,52.42
2022-12-25T17:31:30.217Z,92.38
2022-12-25T17:33:56.868Z,94.43
2022-12-25T17:36:23.670Z,48.55
2022-12-25T17:38:50.510Z,75.20
2022-12-25T17:41:19.004Z,47.17
2022-12-25T17:43:45.899Z,53.72
2022-12-25T17:46:19.723Z,44.45
2022-12-25T17:48:46.324Z,119.40
2022-12-25T17:51:14.368Z,87.90
2022-12-25T17:53:41.855Z,81.88
2022-12-25T17:56:09.600Z,89.72
2022-12-25T17:58:36.874Z,67.82
2022-12-25T18:01:13.778Z,94.03
2022-12-25T18:03:40.306Z,138.20
2022-12-25T18:06:11.033Z,83.72
2022-12-25T18:08:40.828Z,46.95
2022-12-25T18:11:12.003Z,65.53
2022-12-25T18:13:38.381Z,69.75
2022-12-25T18:16:06.284Z,67.32
2022-12-25T18:18:33.050Z,67.90
2022-12-25T18:20:59.698Z,103.13
2022-12-25T18:23:26.102Z,57.58
2022-12-25T18:25:52.787Z,71.65
2022-12-25T18:28:19.180Z,61.05
2022-12-25T18:30:45.795Z,44.70
2022-12-25T18:33:12.746Z,44.50
2022-12-25T18:35:42.605Z,81.45
2022-12-25T18:38:09.830Z,98.38
2022-12-25T18:40:42.258Z,54.50
2022-12-25T18:43:09.239Z,58.55
2022-12-25T18:45:44.447Z,51.20
2022-12-25T18:48:10.890Z,57.45
2022-12-25T18:50:38.315Z,49.08
2022-12-25T18:53:05.120Z,54.30
2022-12-25T18:55:31.821Z,78.63
2022-12-25T18:57:58.426Z,61.28
2022-12-25T19:00:25.439Z,81.95
2022-12-25T19:02:55.648Z,89.95
2022-12-25T19:05:22.334Z,85.10
2022-12-25T19:07:48.732Z,55.08
2022-12-25T19:10:15.556Z,64.57
2022-12-25T19:12:41.932Z,125.20
2022-12-25T19:15:08.565Z,85.00
2022-12-25T19:17:36.036Z,99.95
2022-12-25T19:20:02.586Z,67.25
2022-12-25T19:22:29.235Z,115.35
2022-12-25T19:24:55.702Z,74.00
2022-12-25T19:27:26.436Z,83.13
2022-12-25T19:29:52.896Z,97.78
2022-12-25T19:32:19.563Z,108.88
2022-12-25T19:34:46.219Z,133.45
2022-12-25T19:37:12.710Z,147.20
2022-12-25T19:39:39.964Z,121.72
2022-12-25T19:42:06.568Z,107.85
2022-12-25T19:44:33.243Z,69.45
2022-12-25T19:46:59.855Z,87.05
2022-12-25T19:49:27.962Z,78.95
2022-12-25T19:51:54.287Z,70.00
2022-12-25T19:54:20.951Z,102.00
2022-12-25T19:56:49.570Z,87.82
2022-12-25T19:59:16.309Z,99.68
2022-12-25T20:01:43.564Z,68.13
2022-12-25T20:04:10.421Z,79.47
2022-12-25T20:06:38.486Z,65.22
2022-12-25T20:09:07.414Z,73.25
2022-12-25T20:11:35.235Z,48.50
2022-12-25T20:14:02.080Z,61.05
2022-12-25T20:16:29.238Z,61.55
2022-12-25T20:18:57.406Z,67.60
2022-12-25T20:21:24.682Z,66.25
2022-12-25T20:23:52.385Z,60.08
2022-12-25T20:26:38.233Z,60.35
2022-12-25T20:29:16.293Z,61.95
2022-12-25T20:32:17.497Z,58.80
2022-12-25T20:35:11.501Z,52.78
2022-12-25T20:41:26.138Z,59.28
2022-12-25T20:44:01.501Z,60.58
2022-12-25T20:46:35.961Z,66.93
2022-12-25T20:52:05.086Z,64.10
2022-12-25T20:54:39.760Z,53.55
2022-12-25T20:57:20.364Z,73.28
2022-12-25T21:02:52.435Z,59.80
2022-12-25T21:05:23.550Z,59.85
2022-12-25T21:10:19.288Z,63.33
2022-12-25T21:12:45.697Z,70.40
2022-12-25T21:15:15.947Z,59.20
2022-12-25T21:17:42.362Z,66.30
2022-12-25T21:20:08.792Z,98.45
2022-12-25T21:22:35.157Z,77.35
2022-12-25T21:25:01.761Z,106.07
2022-12-25T21:27:31.466Z,75.95
2022-12-25T21:29:57.836Z,71.60
2022-12-25T21:32:42.892Z,70.68
2022-12-25T21:35:09.464Z,66.45
2022-12-25T21:37:35.799Z,62.63
2022-12-25T21:40:02.149Z,74.13
2022-12-25T21:42:28.605Z,67.93
2022-12-25T21:44:54.973Z,61.13
2022-12-25T21:47:21.341Z,75.70
2022-12-25T21:50:06.364Z,119.22
2022-12-25T21:52:32.791Z,82.85
2022-12-25T21:54:59.188Z,68.55
2022-12-25T21:57:25.820Z,79.78
2022-12-25T21:59:52.239Z,74.32
2022-12-25T22:02:18.796Z,79.00
2022-12-25T22:04:45.319Z,67.28
2022-12-25T22:07:18.486Z,78.38
2022-12-25T22:09:47.677Z,72.93
2022-12-25T22:12:34.449Z,72.35
2022-12-25T22:15:07.295Z,63.78
2022-12-25T22:17:53.723Z,53.80
2022-12-25T22:20:21.887Z,49.55
2022-12-25T22:22:53.212Z,62.08
2022-12-25T22:25:20.449Z,44.28
2022-12-25T22:27:48.107Z,57.53
2022-12-25T22:30:20.503Z,58.38
2022-12-25T22:32:50.228Z,49.03
2022-12-25T22:35:20.091Z,52.73
2022-12-25T22:37:53.936Z,48.17
2022-12-25T22:40:25.692Z,50.08
2022-12-25T22:43:02.098Z,55.70
2022-12-25T22:45:29.141Z,48.92
2022-12-25T22:47:59.337Z,43.33
2022-12-25T22:50:26.447Z,46.90
2022-12-25T22:52:56.201Z,53.78
2022-12-25T22:55:22.638Z,49.17
2022-12-25T22:57:49.089Z,43.30
2022-12-25T23:00:27.459Z,45.42
2022-12-25T23:03:01.741Z,49.90
2022-12-25T23:05:28.355Z,45.83
2022-12-25T23:07:54.744Z,41.50
2022-12-25T23:10:21.068Z,44.58
2022-12-25T23:13:05.803Z,37.50
2022-12-25T23:15:32.540Z,62.85
2022-12-25T23:18:17.469Z,53.47
2022-12-25T23:21:02.277Z,44.78
2022-12-25T23:23:47.039Z,53.22
2022-12-25T23:26:14.021Z,59.72
2022-12-25T23:29:00.139Z,37.38
2022-12-25T23:31:31.473Z,42.38
2022-12-25T23:33:58.274Z,40.75
2022-12-25T23:36:24.905Z,41.42
2022-12-25T23:38:54.252Z,43.05
2022-12-25T23:41:20.613Z,45.70
2022-12-25T23:43:46.994Z,43.28
2022-12-25T23:46:13.584Z,45.97
2022-12-25T23:48:39.931Z,41.35
2022-12-25T23:51:06.786Z,45.58
2022-12-25T23:53:33.519Z,46.53
2022-12-25T23:56:00.364Z,37.90
2022-12-25T23:58:27.311Z,47.80
